sensor_id;sensor_type;location;lat;lon;timestamp;temperature;humidity
23069;DHT22;11702;50.856;4.348;2022-07-29T00:00:07;18.10;99.90
23069;DHT22;11702;50.856;4.348;2022-07-29T00:02:33;18.10;99.90
23069;DHT22;11702;50.856;4.348;2022-07-29T00:04:59;18.00;99.90
23069;DHT22;11702;50.856;4.348;2022-07-29T00:07:25;18.00;99.90
23069;DHT22;11702;50.856;4.348;2022-07-29T00:09:50;18.00;99.90
23069;DHT22;11702;50.856;4.348;2022-07-29T00:12:16;18.00;99.90
23069;DHT22;11702;50.856;4.348;2022-07-29T00:14:42;18.00;99.90
23069;DHT22;11702;50.856;4.348;2022-07-29T00:17:08;18.00;99.90
23069;DHT22;11702;50.856;4.348;2022-07-29T00:19:33;18.00;99.90
23069;DHT22;11702;50.856;4.348;2022-07-29T00:22:00;17.90;99.90
23069;DHT22;11702;50.856;4.348;2022-07-29T00:24:25;18.00;99.90
23069;DHT22;11702;50.856;4.348;2022-07-29T00:26:51;17.90;99.90
23069;DHT22;11702;50.856;4.348;2022-07-29T00:29:17;17.90;99.90
23069;DHT22;11702;50.856;4.348;2022-07-29T00:31:43;17.90;99.90
23069;DHT22;11702;50.856;4.348;2022-07-29T00:34:08;17.90;99.90
23069;DHT22;11702;50.856;4.348;2022-07-29T00:36:54;17.90;99.90
23069;DHT22;11702;50.856;4.348;2022-07-29T00:39:20;17.80;99.90
23069;DHT22;11702;50.856;4.348;2022-07-29T00:41:45;17.80;99.90
23069;DHT22;11702;50.856;4.348;2022-07-29T00:44:11;17.90;99.90
23069;DHT22;11702;50.856;4.348;2022-07-29T00:46:36;17.90;99.90
23069;DHT22;11702;50.856;4.348;2022-07-29T00:49:02;17.90;99.90
23069;DHT22;11702;50.856;4.348;2022-07-29T00:51:28;17.90;99.90
23069;DHT22;11702;50.856;4.348;2022-07-29T00:53:55;17.90;99.90
23069;DHT22;11702;50.856;4.348;2022-07-29T00:56:21;17.90;99.90
23069;DHT22;11702;50.856;4.348;2022-07-29T00:58:47;17.90;99.90
23069;DHT22;11702;50.856;4.348;2022-07-29T01:01:13;17.80;99.90
23069;DHT22;11702;50.856;4.348;2022-07-29T01:03:39;17.80;99.90
23069;DHT22;11702;50.856;4.348;2022-07-29T01:06:04;17.70;99.90
23069;DHT22;11702;50.856;4.348;2022-07-29T01:08:32;17.70;99.90
23069;DHT22;11702;50.856;4.348;2022-07-29T01:10:59;17.80;99.90
23069;DHT22;11702;50.856;4.348;2022-07-29T01:13:26;17.70;99.90
23069;DHT22;11702;50.856;4.348;2022-07-29T01:16:09;17.60;99.90
23069;DHT22;11702;50.856;4.348;2022-07-29T01:18:44;17.50;99.90
23069;DHT22;11702;50.856;4.348;2022-07-29T01:21:43;17.60;99.90
23069;DHT22;11702;50.856;4.348;2022-07-29T01:30:09;17.50;99.90
23069;DHT22;11702;50.856;4.348;2022-07-29T01:32:37;17.50;99.90
23069;DHT22;11702;50.856;4.348;2022-07-29T01:35:05;17.40;99.90
23069;DHT22;11702;50.856;4.348;2022-07-29T01:37:48;17.30;99.90
23069;DHT22;11702;50.856;4.348;2022-07-29T01:40:31;17.30;99.90
23069;DHT22;11702;50.856;4.348;2022-07-29T01:43:05;17.30;99.90
23069;DHT22;11702;50.856;4.348;2022-07-29T01:45:45;17.30;99.90
23069;DHT22;11702;50.856;4.348;2022-07-29T01:48:16;17.20;99.90
23069;DHT22;11702;50.856;4.348;2022-07-29T01:51:02;17.20;99.90
23069;DHT22;11702;50.856;4.348;2022-07-29T01:53:47;17.10;99.90
23069;DHT22;11702;50.856;4.348;2022-07-29T01:56:14;17.00;99.90
23069;DHT22;11702;50.856;4.348;2022-07-29T01:58:43;17.00;99.90
23069;DHT22;11702;50.856;4.348;2022-07-29T02:01:12;16.90;99.90
23069;DHT22;11702;50.856;4.348;2022-07-29T02:03:39;16.90;99.90
23069;DHT22;11702;50.856;4.348;2022-07-29T02:06:09;16.90;99.90
23069;DHT22;11702;50.856;4.348;2022-07-29T02:08:37;16.80;99.90
23069;DHT22;11702;50.856;4.348;2022-07-29T02:11:04;16.80;99.90
23069;DHT22;11702;50.856;4.348;2022-07-29T02:13:34;16.70;99.90
23069;DHT22;11702;50.856;4.348;2022-07-29T02:16:02;16.70;99.90
23069;DHT22;11702;50.856;4.348;2022-07-29T02:18:30;16.70;99.90
23069;DHT22;11702;50.856;4.348;2022-07-29T02:20:58;16.60;99.90
23069;DHT22;11702;50.856;4.348;2022-07-29T02:23:25;16.60;99.90
23069;DHT22;11702;50.856;4.348;2022-07-29T02:25:53;16.60;99.90
23069;DHT22;11702;50.856;4.348;2022-07-29T02:28:20;16.60;99.90
23069;DHT22;11702;50.856;4.348;2022-07-29T02:30:52;16.60;99.90
23069;DHT22;11702;50.856;4.348;2022-07-29T02:33:20;16.60;99.90
23069;DHT22;11702;50.856;4.348;2022-07-29T02:35:47;16.60;99.90
23069;DHT22;11702;50.856;4.348;2022-07-29T02:38:15;16.60;99.90
23069;DHT22;11702;50.856;4.348;2022-07-29T02:41:03;16.60;99.90
23069;DHT22;11702;50.856;4.348;2022-07-29T02:43:30;16.50;99.90
23069;DHT22;11702;50.856;4.348;2022-07-29T02:45:59;16.50;99.90
23069;DHT22;11702;50.856;4.348;2022-07-29T02:48:36;16.50;99.90
23069;DHT22;11702;50.856;4.348;2022-07-29T02:51:10;16.40;99.90
23069;DHT22;11702;50.856;4.348;2022-07-29T02:53:38;16.40;99.90
23069;DHT22;11702;50.856;4.348;2022-07-29T02:56:11;16.30;99.90
23069;DHT22;11702;50.856;4.348;2022-07-29T02:58:41;16.30;99.90
23069;DHT22;11702;50.856;4.348;2022-07-29T03:01:21;16.30;99.90
23069;DHT22;11702;50.856;4.348;2022-07-29T03:03:49;16.20;99.90
23069;DHT22;11702;50.856;4.348;2022-07-29T03:06:21;16.20;99.90
23069;DHT22;11702;50.856;4.348;2022-07-29T03:08:48;16.10;99.90
23069;DHT22;11702;50.856;4.348;2022-07-29T03:11:15;16.20;99.90
23069;DHT22;11702;50.856;4.348;2022-07-29T03:13:42;16.20;99.90
23069;DHT22;11702;50.856;4.348;2022-07-29T03:16:08;16.20;99.90
23069;DHT22;11702;50.856;4.348;2022-07-29T03:18:35;16.20;99.90
23069;DHT22;11702;50.856;4.348;2022-07-29T03:21:02;16.20;99.90
23069;DHT22;11702;50.856;4.348;2022-07-29T03:23:28;16.20;99.90
23069;DHT22;11702;50.856;4.348;2022-07-29T03:25:54;16.10;99.90
23069;DHT22;11702;50.856;4.348;2022-07-29T03:28:20;16.10;99.90
23069;DHT22;11702;50.856;4.348;2022-07-29T03:30:46;16.00;99.90
23069;DHT22;11702;50.856;4.348;2022-07-29T03:33:12;16.00;99.90
23069;DHT22;11702;50.856;4.348;2022-07-29T03:35:38;16.00;99.90
23069;DHT22;11702;50.856;4.348;2022-07-29T03:38:04;16.00;99.90
23069;DHT22;11702;50.856;4.348;2022-07-29T03:40:37;16.00;99.90
23069;DHT22;11702;50.856;4.348;2022-07-29T03:43:05;16.00;99.90
23069;DHT22;11702;50.856;4.348;2022-07-29T03:45:32;15.90;99.90
23069;DHT22;11702;50.856;4.348;2022-07-29T03:48:06;15.90;99.90
23069;DHT22;11702;50.856;4.348;2022-07-29T03:50:33;15.90;99.90
23069;DHT22;11702;50.856;4.348;2022-07-29T03:53:00;15.90;99.90
23069;DHT22;11702;50.856;4.348;2022-07-29T03:55:28;15.90;99.90
23069;DHT22;11702;50.856;4.348;2022-07-29T03:57:55;15.80;99.90
23069;DHT22;11702;50.856;4.348;2022-07-29T04:00:23;15.80;99.90
23069;DHT22;11702;50.856;4.348;2022-07-29T04:02:49;15.90;99.90
23069;DHT22;11702;50.856;4.348;2022-07-29T04:05:17;15.90;99.90
23069;DHT22;11702;50.856;4.348;2022-07-29T04:07:47;15.90;99.90
23069;DHT22;11702;50.856;4.348;2022-07-29T04:10:13;15.80;99.90
23069;DHT22;11702;50.856;4.348;2022-07-29T04:12:41;15.80;99.90
23069;DHT22;11702;50.856;4.348;2022-07-29T04:15:07;15.70;99.90
23069;DHT22;11702;50.856;4.348;2022-07-29T04:17:33;15.60;99.90
23069;DHT22;11702;50.856;4.348;2022-07-29T04:19:59;15.60;99.90
23069;DHT22;11702;50.856;4.348;2022-07-29T04:22:24;15.60;99.90
23069;DHT22;11702;50.856;4.348;2022-07-29T04:24:50;15.60;99.90
23069;DHT22;11702;50.856;4.348;2022-07-29T04:27:16;15.60;99.90
23069;DHT22;11702;50.856;4.348;2022-07-29T04:29:41;15.60;99.90
23069;DHT22;11702;50.856;4.348;2022-07-29T04:32:07;15.60;99.90
23069;DHT22;11702;50.856;4.348;2022-07-29T04:34:33;15.60;99.90
23069;DHT22;11702;50.856;4.348;2022-07-29T04:36:58;15.70;99.90
23069;DHT22;11702;50.856;4.348;2022-07-29T04:39:25;15.70;99.90
23069;DHT22;11702;50.856;4.348;2022-07-29T04:41:52;15.70;99.90
23069;DHT22;11702;50.856;4.348;2022-07-29T04:44:18;15.70;99.90
23069;DHT22;11702;50.856;4.348;2022-07-29T04:46:45;15.70;99.90
23069;DHT22;11702;50.856;4.348;2022-07-29T04:49:10;15.80;99.90
23069;DHT22;11702;50.856;4.348;2022-07-29T04:51:37;16.00;99.90
23069;DHT22;11702;50.856;4.348;2022-07-29T04:54:04;16.10;99.90
23069;DHT22;11702;50.856;4.348;2022-07-29T04:56:51;16.30;99.90
23069;DHT22;11702;50.856;4.348;2022-07-29T04:59:20;16.70;99.90
23069;DHT22;11702;50.856;4.348;2022-07-29T05:02:12;16.90;99.90
23069;DHT22;11702;50.856;4.348;2022-07-29T05:04:38;17.20;99.90
23069;DHT22;11702;50.856;4.348;2022-07-29T05:07:03;17.50;99.90
23069;DHT22;11702;50.856;4.348;2022-07-29T05:09:29;17.80;99.90
23069;DHT22;11702;50.856;4.348;2022-07-29T05:11:55;17.90;99.90
23069;DHT22;11702;50.856;4.348;2022-07-29T05:14:21;17.60;99.90
23069;DHT22;11702;50.856;4.348;2022-07-29T05:16:46;17.70;99.90
23069;DHT22;11702;50.856;4.348;2022-07-29T05:19:13;17.70;99.90
23069;DHT22;11702;50.856;4.348;2022-07-29T05:21:38;18.20;99.90
23069;DHT22;11702;50.856;4.348;2022-07-29T05:24:04;18.50;99.90
23069;DHT22;11702;50.856;4.348;2022-07-29T05:26:30;18.20;99.90
23069;DHT22;11702;50.856;4.348;2022-07-29T05:28:56;18.00;99.90
23069;DHT22;11702;50.856;4.348;2022-07-29T05:31:22;17.80;99.90
23069;DHT22;11702;50.856;4.348;2022-07-29T05:33:47;17.50;99.90
23069;DHT22;11702;50.856;4.348;2022-07-29T05:36:13;17.30;99.90
23069;DHT22;11702;50.856;4.348;2022-07-29T05:38:39;17.10;99.90
23069;DHT22;11702;50.856;4.348;2022-07-29T05:41:05;17.10;99.90
23069;DHT22;11702;50.856;4.348;2022-07-29T05:43:31;17.00;99.90
23069;DHT22;11702;50.856;4.348;2022-07-29T05:45:57;17.00;99.90
23069;DHT22;11702;50.856;4.348;2022-07-29T05:48:23;17.10;99.90
23069;DHT22;11702;50.856;4.348;2022-07-29T05:50:48;17.20;99.90
23069;DHT22;11702;50.856;4.348;2022-07-29T05:53:14;17.10;99.90
23069;DHT22;11702;50.856;4.348;2022-07-29T05:55:40;17.10;99.90
23069;DHT22;11702;50.856;4.348;2022-07-29T05:58:05;17.10;99.90
23069;DHT22;11702;50.856;4.348;2022-07-29T06:00:31;17.10;99.90
23069;DHT22;11702;50.856;4.348;2022-07-29T06:02:57;17.00;99.90
23069;DHT22;11702;50.856;4.348;2022-07-29T06:05:22;17.20;99.90
23069;DHT22;11702;50.856;4.348;2022-07-29T06:07:48;17.40;99.90
23069;DHT22;11702;50.856;4.348;2022-07-29T06:10:14;17.70;99.90
23069;DHT22;11702;50.856;4.348;2022-07-29T06:12:40;18.00;99.90
23069;DHT22;11702;50.856;4.348;2022-07-29T06:15:07;18.20;99.90
23069;DHT22;11702;50.856;4.348;2022-07-29T06:17:33;18.60;99.90
23069;DHT22;11702;50.856;4.348;2022-07-29T06:19:59;19.00;99.90
23069;DHT22;11702;50.856;4.348;2022-07-29T06:22:25;19.50;99.90
23069;DHT22;11702;50.856;4.348;2022-07-29T06:24:50;20.10;99.90
23069;DHT22;11702;50.856;4.348;2022-07-29T06:27:16;19.90;99.90
23069;DHT22;11702;50.856;4.348;2022-07-29T06:29:41;19.70;99.90
23069;DHT22;11702;50.856;4.348;2022-07-29T06:32:07;19.90;99.90
23069;DHT22;11702;50.856;4.348;2022-07-29T06:34:35;19.90;99.90
23069;DHT22;11702;50.856;4.348;2022-07-29T06:37:06;19.90;99.90
23069;DHT22;11702;50.856;4.348;2022-07-29T06:39:34;20.00;99.90
23069;DHT22;11702;50.856;4.348;2022-07-29T06:42:00;20.20;99.90
23069;DHT22;11702;50.856;4.348;2022-07-29T06:44:26;20.50;99.90
23069;DHT22;11702;50.856;4.348;2022-07-29T06:46:51;20.50;99.90
23069;DHT22;11702;50.856;4.348;2022-07-29T06:49:18;20.30;99.90
23069;DHT22;11702;50.856;4.348;2022-07-29T06:51:43;20.50;99.90
23069;DHT22;11702;50.856;4.348;2022-07-29T06:54:09;20.80;99.90
23069;DHT22;11702;50.856;4.348;2022-07-29T06:56:35;20.90;99.90
23069;DHT22;11702;50.856;4.348;2022-07-29T06:59:03;21.30;99.90
23069;DHT22;11702;50.856;4.348;2022-07-29T07:01:29;21.30;99.90
23069;DHT22;11702;50.856;4.348;2022-07-29T07:03:55;21.20;99.90
23069;DHT22;11702;50.856;4.348;2022-07-29T07:06:21;21.40;99.90
23069;DHT22;11702;50.856;4.348;2022-07-29T07:08:47;21.40;99.90
23069;DHT22;11702;50.856;4.348;2022-07-29T07:11:13;21.20;99.90
23069;DHT22;11702;50.856;4.348;2022-07-29T07:13:38;21.30;99.90
23069;DHT22;11702;50.856;4.348;2022-07-29T07:16:04;21.50;99.90
23069;DHT22;11702;50.856;4.348;2022-07-29T07:18:30;21.40;99.90
23069;DHT22;11702;50.856;4.348;2022-07-29T07:20:56;21.20;99.90
23069;DHT22;11702;50.856;4.348;2022-07-29T07:23:22;20.80;99.90
23069;DHT22;11702;50.856;4.348;2022-07-29T07:25:48;21.00;99.90
23069;DHT22;11702;50.856;4.348;2022-07-29T07:28:14;20.90;99.90
23069;DHT22;11702;50.856;4.348;2022-07-29T07:30:41;21.00;99.90
23069;DHT22;11702;50.856;4.348;2022-07-29T07:33:07;21.10;99.90
23069;DHT22;11702;50.856;4.348;2022-07-29T07:35:32;21.20;99.90
23069;DHT22;11702;50.856;4.348;2022-07-29T07:37:59;21.30;99.90
23069;DHT22;11702;50.856;4.348;2022-07-29T07:40:25;21.50;99.90
23069;DHT22;11702;50.856;4.348;2022-07-29T07:42:51;21.70;99.90
23069;DHT22;11702;50.856;4.348;2022-07-29T07:45:18;21.90;99.90
23069;DHT22;11702;50.856;4.348;2022-07-29T07:47:43;21.80;99.90
23069;DHT22;11702;50.856;4.348;2022-07-29T07:50:11;21.80;99.90
23069;DHT22;11702;50.856;4.348;2022-07-29T07:52:47;21.80;99.90
23069;DHT22;11702;50.856;4.348;2022-07-29T07:55:14;22.20;99.90
23069;DHT22;11702;50.856;4.348;2022-07-29T07:57:40;21.80;99.90
23069;DHT22;11702;50.856;4.348;2022-07-29T08:00:17;21.60;99.90
23069;DHT22;11702;50.856;4.348;2022-07-29T08:02:51;21.60;99.90
23069;DHT22;11702;50.856;4.348;2022-07-29T08:05:45;21.80;99.90
23069;DHT22;11702;50.856;4.348;2022-07-29T08:08:32;22.00;99.90
23069;DHT22;11702;50.856;4.348;2022-07-29T08:10:57;21.90;99.90
23069;DHT22;11702;50.856;4.348;2022-07-29T08:13:26;21.70;99.90
23069;DHT22;11702;50.856;4.348;2022-07-29T08:15:56;22.00;99.90
23069;DHT22;11702;50.856;4.348;2022-07-29T08:18:41;22.00;99.90
23069;DHT22;11702;50.856;4.348;2022-07-29T08:21:30;22.10;99.90
23069;DHT22;11702;50.856;4.348;2022-07-29T08:24:08;22.00;99.90
23069;DHT22;11702;50.856;4.348;2022-07-29T08:26:52;22.00;99.90
23069;DHT22;11702;50.856;4.348;2022-07-29T08:29:18;22.00;99.90
23069;DHT22;11702;50.856;4.348;2022-07-29T08:31:45;21.90;99.90
23069;DHT22;11702;50.856;4.348;2022-07-29T08:34:11;22.20;99.90
23069;DHT22;11702;50.856;4.348;2022-07-29T08:36:37;22.30;99.90
23069;DHT22;11702;50.856;4.348;2022-07-29T08:39:09;22.30;99.90
23069;DHT22;11702;50.856;4.348;2022-07-29T08:41:38;22.50;99.90
23069;DHT22;11702;50.856;4.348;2022-07-29T08:44:21;22.60;99.90
23069;DHT22;11702;50.856;4.348;2022-07-29T08:46:52;22.70;99.90
23069;DHT22;11702;50.856;4.348;2022-07-29T08:49:29;22.80;99.90
23069;DHT22;11702;50.856;4.348;2022-07-29T08:52:11;22.90;99.90
23069;DHT22;11702;50.856;4.348;2022-07-29T08:54:43;23.00;99.90
23069;DHT22;11702;50.856;4.348;2022-07-29T08:57:26;23.00;99.80
23069;DHT22;11702;50.856;4.348;2022-07-29T09:00:01;22.80;99.90
23069;DHT22;11702;50.856;4.348;2022-07-29T09:02:50;22.90;99.90
23069;DHT22;11702;50.856;4.348;2022-07-29T09:05:28;22.90;99.90
23069;DHT22;11702;50.856;4.348;2022-07-29T09:07:55;23.00;99.90
23069;DHT22;11702;50.856;4.348;2022-07-29T09:10:54;23.10;99.60
23069;DHT22;11702;50.856;4.348;2022-07-29T09:13:22;23.00;99.30
23069;DHT22;11702;50.856;4.348;2022-07-29T09:15:48;22.90;99.60
23069;DHT22;11702;50.856;4.348;2022-07-29T09:18:37;22.80;99.90
23069;DHT22;11702;50.856;4.348;2022-07-29T09:21:10;23.00;99.10
23069;DHT22;11702;50.856;4.348;2022-07-29T09:24:40;23.00;98.60
23069;DHT22;11702;50.856;4.348;2022-07-29T09:27:45;22.80;99.30
23069;DHT22;11702;50.856;4.348;2022-07-29T09:30:14;22.90;98.70
23069;DHT22;11702;50.856;4.348;2022-07-29T09:32:58;22.70;99.10
23069;DHT22;11702;50.856;4.348;2022-07-29T09:35:30;22.60;99.20
23069;DHT22;11702;50.856;4.348;2022-07-29T09:37:56;22.60;99.70
23069;DHT22;11702;50.856;4.348;2022-07-29T09:40:26;22.70;99.60
23069;DHT22;11702;50.856;4.348;2022-07-29T09:43:12;22.70;98.80
23069;DHT22;11702;50.856;4.348;2022-07-29T09:45:39;22.80;99.10
23069;DHT22;11702;50.856;4.348;2022-07-29T09:48:36;22.70;99.10
23069;DHT22;11702;50.856;4.348;2022-07-29T09:51:33;22.80;98.70
23069;DHT22;11702;50.856;4.348;2022-07-29T09:58:18;23.00;98.00
23069;DHT22;11702;50.856;4.348;2022-07-29T10:00:52;23.20;97.80
23069;DHT22;11702;50.856;4.348;2022-07-29T10:03:19;23.40;98.10
23069;DHT22;11702;50.856;4.348;2022-07-29T10:06:04;23.20;97.80
23069;DHT22;11702;50.856;4.348;2022-07-29T10:08:30;23.20;97.70
23069;DHT22;11702;50.856;4.348;2022-07-29T10:11:16;23.30;97.10
23069;DHT22;11702;50.856;4.348;2022-07-29T10:13:46;23.30;97.20
23069;DHT22;11702;50.856;4.348;2022-07-29T10:16:15;23.30;97.40
23069;DHT22;11702;50.856;4.348;2022-07-29T10:18:44;23.50;97.10
23069;DHT22;11702;50.856;4.348;2022-07-29T10:21:09;23.60;96.20
23069;DHT22;11702;50.856;4.348;2022-07-29T10:23:36;23.60;95.80
23069;DHT22;11702;50.856;4.348;2022-07-29T10:26:03;23.60;95.50
23069;DHT22;11702;50.856;4.348;2022-07-29T10:28:31;23.70;95.60
23069;DHT22;11702;50.856;4.348;2022-07-29T10:31:03;23.80;95.10
23069;DHT22;11702;50.856;4.348;2022-07-29T10:42:15;24.00;93.50
23069;DHT22;11702;50.856;4.348;2022-07-29T10:44:43;24.00;93.50
23069;DHT22;11702;50.856;4.348;2022-07-29T10:47:23;24.30;92.90
23069;DHT22;11702;50.856;4.348;2022-07-29T10:50:00;24.50;93.10
23069;DHT22;11702;50.856;4.348;2022-07-29T10:52:52;24.50;93.00
23069;DHT22;11702;50.856;4.348;2022-07-29T10:55:39;24.60;92.60
23069;DHT22;11702;50.856;4.348;2022-07-29T10:58:22;23.70;93.70
23069;DHT22;11702;50.856;4.348;2022-07-29T11:00:51;23.70;94.20
23069;DHT22;11702;50.856;4.348;2022-07-29T11:03:42;23.90;93.90
23069;DHT22;11702;50.856;4.348;2022-07-29T11:06:08;23.90;93.60
23069;DHT22;11702;50.856;4.348;2022-07-29T11:08:34;23.90;93.30
23069;DHT22;11702;50.856;4.348;2022-07-29T11:16:11;24.00;92.50
23069;DHT22;11702;50.856;4.348;2022-07-29T11:21:41;24.20;91.50
23069;DHT22;11702;50.856;4.348;2022-07-29T11:24:18;24.20;90.50
23069;DHT22;11702;50.856;4.348;2022-07-29T11:26:44;24.20;90.80
23069;DHT22;11702;50.856;4.348;2022-07-29T11:29:18;24.00;90.90
23069;DHT22;11702;50.856;4.348;2022-07-29T11:31:48;24.00;91.40
23069;DHT22;11702;50.856;4.348;2022-07-29T11:39:36;24.40;91.70
23069;DHT22;11702;50.856;4.348;2022-07-29T11:45:15;24.50;91.30
23069;DHT22;11702;50.856;4.348;2022-07-29T11:50:15;24.70;90.20
23069;DHT22;11702;50.856;4.348;2022-07-29T11:52:43;24.70;87.90
23069;DHT22;11702;50.856;4.348;2022-07-29T11:55:15;24.80;88.00
23069;DHT22;11702;50.856;4.348;2022-07-29T11:57:48;24.90;89.90
23069;DHT22;11702;50.856;4.348;2022-07-29T12:02:53;25.10;87.20
23069;DHT22;11702;50.856;4.348;2022-07-29T12:05:19;25.10;86.40
23069;DHT22;11702;50.856;4.348;2022-07-29T12:07:46;25.20;88.30
23069;DHT22;11702;50.856;4.348;2022-07-29T12:10:12;25.30;88.40
23069;DHT22;11702;50.856;4.348;2022-07-29T12:12:38;25.60;87.60
23069;DHT22;11702;50.856;4.348;2022-07-29T12:15:24;25.90;87.20
23069;DHT22;11702;50.856;4.348;2022-07-29T12:17:51;25.90;86.60
23069;DHT22;11702;50.856;4.348;2022-07-29T12:20:28;25.80;86.40
23069;DHT22;11702;50.856;4.348;2022-07-29T12:22:55;25.70;87.20
23069;DHT22;11702;50.856;4.348;2022-07-29T12:25:22;25.30;86.80
23069;DHT22;11702;50.856;4.348;2022-07-29T12:27:58;25.10;86.90
23069;DHT22;11702;50.856;4.348;2022-07-29T12:30:37;25.10;87.00
23069;DHT22;11702;50.856;4.348;2022-07-29T12:33:11;25.40;87.00
23069;DHT22;11702;50.856;4.348;2022-07-29T12:35:37;25.60;85.40
23069;DHT22;11702;50.856;4.348;2022-07-29T12:38:03;25.90;85.60
23069;DHT22;11702;50.856;4.348;2022-07-29T12:40:29;26.30;84.70
23069;DHT22;11702;50.856;4.348;2022-07-29T12:45:35;26.10;84.50
23069;DHT22;11702;50.856;4.348;2022-07-29T12:48:01;26.30;83.90
23069;DHT22;11702;50.856;4.348;2022-07-29T12:50:28;26.10;83.60
23069;DHT22;11702;50.856;4.348;2022-07-29T12:52:53;26.20;83.70
23069;DHT22;11702;50.856;4.348;2022-07-29T12:55:42;26.60;83.70
23069;DHT22;11702;50.856;4.348;2022-07-29T12:58:08;27.00;82.20
23069;DHT22;11702;50.856;4.348;2022-07-29T13:00:34;27.00;81.00
23069;DHT22;11702;50.856;4.348;2022-07-29T13:03:00;26.80;80.60
23069;DHT22;11702;50.856;4.348;2022-07-29T13:05:45;26.70;81.40
23069;DHT22;11702;50.856;4.348;2022-07-29T13:08:15;26.60;81.70
23069;DHT22;11702;50.856;4.348;2022-07-29T13:10:41;26.70;82.10
23069;DHT22;11702;50.856;4.348;2022-07-29T13:13:09;26.90;82.90
23069;DHT22;11702;50.856;4.348;2022-07-29T13:15:42;27.10;81.70
23069;DHT22;11702;50.856;4.348;2022-07-29T13:18:27;27.20;81.60
23069;DHT22;11702;50.856;4.348;2022-07-29T13:20:53;27.50;81.20
23069;DHT22;11702;50.856;4.348;2022-07-29T13:23:19;27.60;80.80
23069;DHT22;11702;50.856;4.348;2022-07-29T13:25:45;27.40;80.00
23069;DHT22;11702;50.856;4.348;2022-07-29T13:28:10;27.40;80.20
23069;DHT22;11702;50.856;4.348;2022-07-29T13:30:37;27.30;79.50
23069;DHT22;11702;50.856;4.348;2022-07-29T13:33:03;26.90;79.90
23069;DHT22;11702;50.856;4.348;2022-07-29T13:35:29;27.00;80.90
23069;DHT22;11702;50.856;4.348;2022-07-29T13:37:55;26.50;80.90
23069;DHT22;11702;50.856;4.348;2022-07-29T13:40:20;26.20;82.10
23069;DHT22;11702;50.856;4.348;2022-07-29T13:42:46;26.40;82.50
23069;DHT22;11702;50.856;4.348;2022-07-29T13:45:12;26.60;81.10
23069;DHT22;11702;50.856;4.348;2022-07-29T13:47:38;26.90;81.40
23069;DHT22;11702;50.856;4.348;2022-07-29T13:50:05;27.10;80.70
23069;DHT22;11702;50.856;4.348;2022-07-29T13:52:32;26.70;80.80
23069;DHT22;11702;50.856;4.348;2022-07-29T13:54:58;26.60;80.90
23069;DHT22;11702;50.856;4.348;2022-07-29T13:57:24;26.50;81.70
23069;DHT22;11702;50.856;4.348;2022-07-29T13:59:50;26.30;80.30
23069;DHT22;11702;50.856;4.348;2022-07-29T14:02:16;26.10;79.90
23069;DHT22;11702;50.856;4.348;2022-07-29T14:04:42;26.00;80.00
23069;DHT22;11702;50.856;4.348;2022-07-29T14:07:08;26.00;79.00
23069;DHT22;11702;50.856;4.348;2022-07-29T14:09:33;26.00;79.80
23069;DHT22;11702;50.856;4.348;2022-07-29T14:11:59;26.00;80.10
23069;DHT22;11702;50.856;4.348;2022-07-29T14:14:25;26.20;80.10
23069;DHT22;11702;50.856;4.348;2022-07-29T14:16:50;26.50;79.90
23069;DHT22;11702;50.856;4.348;2022-07-29T14:19:16;26.50;80.60
23069;DHT22;11702;50.856;4.348;2022-07-29T14:21:42;26.30;82.50
23069;DHT22;11702;50.856;4.348;2022-07-29T14:24:07;26.00;81.40
23069;DHT22;11702;50.856;4.348;2022-07-29T14:26:33;26.00;81.50
23069;DHT22;11702;50.856;4.348;2022-07-29T14:28:58;26.10;81.80
23069;DHT22;11702;50.856;4.348;2022-07-29T14:31:24;26.10;80.80
23069;DHT22;11702;50.856;4.348;2022-07-29T14:33:50;26.20;80.80
23069;DHT22;11702;50.856;4.348;2022-07-29T14:36:15;26.10;80.10
23069;DHT22;11702;50.856;4.348;2022-07-29T14:38:41;26.10;79.70
23069;DHT22;11702;50.856;4.348;2022-07-29T14:41:07;26.10;79.70
23069;DHT22;11702;50.856;4.348;2022-07-29T14:43:34;26.10;80.40
23069;DHT22;11702;50.856;4.348;2022-07-29T14:46:00;26.30;80.40
23069;DHT22;11702;50.856;4.348;2022-07-29T14:48:26;26.20;81.20
23069;DHT22;11702;50.856;4.348;2022-07-29T14:50:52;25.90;80.30
23069;DHT22;11702;50.856;4.348;2022-07-29T14:53:18;25.80;80.70
23069;DHT22;11702;50.856;4.348;2022-07-29T14:55:44;25.80;80.70
23069;DHT22;11702;50.856;4.348;2022-07-29T14:58:09;25.60;81.60
23069;DHT22;11702;50.856;4.348;2022-07-29T15:00:35;25.60;81.90
23069;DHT22;11702;50.856;4.348;2022-07-29T15:03:03;25.70;82.40
23069;DHT22;11702;50.856;4.348;2022-07-29T15:05:31;25.80;81.60
23069;DHT22;11702;50.856;4.348;2022-07-29T15:08:00;25.80;81.10
23069;DHT22;11702;50.856;4.348;2022-07-29T15:10:26;25.80;81.70
23069;DHT22;11702;50.856;4.348;2022-07-29T15:12:53;25.90;81.50
23069;DHT22;11702;50.856;4.348;2022-07-29T15:15:19;26.00;82.00
23069;DHT22;11702;50.856;4.348;2022-07-29T15:17:44;26.10;81.10
23069;DHT22;11702;50.856;4.348;2022-07-29T15:20:11;26.20;81.00
23069;DHT22;11702;50.856;4.348;2022-07-29T15:22:37;26.50;80.50
23069;DHT22;11702;50.856;4.348;2022-07-29T15:25:04;26.40;80.20
23069;DHT22;11702;50.856;4.348;2022-07-29T15:27:30;26.20;80.60
23069;DHT22;11702;50.856;4.348;2022-07-29T15:29:56;26.20;81.60
23069;DHT22;11702;50.856;4.348;2022-07-29T15:32:22;26.20;80.90
23069;DHT22;11702;50.856;4.348;2022-07-29T15:34:50;26.30;79.50
23069;DHT22;11702;50.856;4.348;2022-07-29T15:37:15;26.20;79.90
23069;DHT22;11702;50.856;4.348;2022-07-29T15:39:41;26.00;80.90
23069;DHT22;11702;50.856;4.348;2022-07-29T15:42:07;26.10;81.20
23069;DHT22;11702;50.856;4.348;2022-07-29T15:44:33;26.10;80.10
23069;DHT22;11702;50.856;4.348;2022-07-29T15:46:59;26.40;79.60
23069;DHT22;11702;50.856;4.348;2022-07-29T15:49:28;26.80;79.70
23069;DHT22;11702;50.856;4.348;2022-07-29T15:51:58;26.80;77.90
23069;DHT22;11702;50.856;4.348;2022-07-29T15:54:24;27.10;77.60
23069;DHT22;11702;50.856;4.348;2022-07-29T15:56:50;26.90;76.40
23069;DHT22;11702;50.856;4.348;2022-07-29T15:59:16;26.60;77.10
23069;DHT22;11702;50.856;4.348;2022-07-29T16:01:41;26.30;77.20
23069;DHT22;11702;50.856;4.348;2022-07-29T16:04:07;26.20;77.10
23069;DHT22;11702;50.856;4.348;2022-07-29T16:06:32;26.20;77.20
23069;DHT22;11702;50.856;4.348;2022-07-29T16:08:58;26.40;76.90
23069;DHT22;11702;50.856;4.348;2022-07-29T16:11:25;26.40;77.70
23069;DHT22;11702;50.856;4.348;2022-07-29T16:13:50;26.40;78.20
23069;DHT22;11702;50.856;4.348;2022-07-29T16:16:16;26.50;78.60
23069;DHT22;11702;50.856;4.348;2022-07-29T16:18:44;26.70;77.90
23069;DHT22;11702;50.856;4.348;2022-07-29T16:21:11;26.80;78.50
23069;DHT22;11702;50.856;4.348;2022-07-29T16:23:38;26.90;77.80
23069;DHT22;11702;50.856;4.348;2022-07-29T16:26:04;27.20;77.70